地図

経路データ

SID SEASON NUMBER BASIN SUBBASIN NAME ISO_TIME NATURE LAT LON WMO_WIND WMO_PRES WMO_AGENCY TRACK_TYPE DIST2LAND LANDFALL IFLAG USA_AGENCY USA_ATCF_ID USA_LAT USA_LON USA_RECORD USA_STATUS USA_WIND USA_PRES USA_SSHS USA_R34_NE USA_R34_SE USA_R34_SW USA_R34_NW USA_R50_NE USA_R50_SE USA_R50_SW USA_R50_NW USA_R64_NE USA_R64_SE USA_R64_SW USA_R64_NW USA_POCI USA_ROCI USA_RMW USA_EYE TOKYO_LAT TOKYO_LON TOKYO_GRADE TOKYO_WIND TOKYO_PRES TOKYO_R50_DIR TOKYO_R50_LONG TOKYO_R50_SHORT TOKYO_R30_DIR TOKYO_R30_LONG TOKYO_R30_SHORT TOKYO_LAND CMA_LAT CMA_LON CMA_CAT CMA_WIND CMA_PRES HKO_LAT HKO_LON HKO_CAT HKO_WIND HKO_PRES NEWDELHI_LAT NEWDELHI_LON NEWDELHI_GRADE NEWDELHI_WIND NEWDELHI_PRES NEWDELHI_CI NEWDELHI_DP NEWDELHI_POCI REUNION_LAT REUNION_LON REUNION_TYPE REUNION_WIND REUNION_PRES REUNION_TNUM REUNION_CI REUNION_RMW REUNION_R34_NE REUNION_R34_SE REUNION_R34_SW REUNION_R34_NW REUNION_R50_NE REUNION_R50_SE REUNION_R50_SW REUNION_R50_NW REUNION_R64_NE REUNION_R64_SE REUNION_R64_SW REUNION_R64_NW BOM_LAT BOM_LON BOM_TYPE BOM_WIND BOM_PRES BOM_TNUM BOM_CI BOM_RMW BOM_R34_NE BOM_R34_SE BOM_R34_SW BOM_R34_NW BOM_R50_NE BOM_R50_SE BOM_R50_SW BOM_R50_NW BOM_R64_NE BOM_R64_SE BOM_R64_SW BOM_R64_NW BOM_ROCI BOM_POCI BOM_EYE BOM_POS_METHOD BOM_PRES_METHOD NADI_LAT NADI_LON NADI_CAT NADI_WIND NADI_PRES WELLINGTON_LAT WELLINGTON_LON WELLINGTON_WIND WELLINGTON_PRES DS824_LAT DS824_LON DS824_STAGE DS824_WIND DS824_PRES TD9636_LAT TD9636_LON TD9636_STAGE TD9636_WIND TD9636_PRES TD9635_LAT TD9635_LON TD9635_WIND TD9635_PRES TD9635_ROCI NEUMANN_LAT NEUMANN_LON NEUMANN_CLASS NEUMANN_WIND NEUMANN_PRES MLC_LAT MLC_LON MLC_CLASS MLC_WIND MLC_PRES USA_GUST BOM_GUST BOM_GUST_PER REUNION_GUST REUNION_GUST_PER USA_SEAHGT USA_SEARAD_NE USA_SEARAD_SE USA_SEARAD_SW USA_SEARAD_NW STORM_SPEED STORM_DIR
1937260N23266 1937 46 NA GM NOT_NAMED 1937-09-16 12:00:00 TS 23.1000 -94.2000 35 hurdat_atl main 360 360 O_____________ hurdat_atl AL071937 23.1000 -94.2000 TS 35 0 6 50
1937260N23266 1937 46 NA GM NOT_NAMED 1937-09-16 15:00:00 TS 23.3001 -93.9427 main 397 397 P_____________ AL071937 23.3001 -93.9427 TS 35 0 6 49
1937260N23266 1937 46 NA GM NOT_NAMED 1937-09-16 18:00:00 TS 23.5000 -93.7000 35 hurdat_atl main 417 417 O_____________ hurdat_atl AL071937 23.5000 -93.7000 TS 35 0 6 46
1937260N23266 1937 46 NA GM NOT_NAMED 1937-09-16 21:00:00 TS 23.7000 -93.4849 main 428 428 P_____________ AL071937 23.7000 -93.4849 TS 35 0 5 42
1937260N23266 1937 46 NA GM NOT_NAMED 1937-09-17 00:00:00 TS 23.9000 -93.3000 35 hurdat_atl main 436 432 O_____________ hurdat_atl AL071937 23.9000 -93.3000 TS 35 0 5 37
1937260N23266 1937 46 NA GM NOT_NAMED 1937-09-17 03:00:00 TS 24.0999 -93.1499 main 441 441 P_____________ AL071937 24.0999 -93.1499 TS 37 0 5 34
1937260N23266 1937 46 NA GM NOT_NAMED 1937-09-17 06:00:00 TS 24.3000 -93.0000 40 hurdat_atl main 447 443 O_____________ hurdat_atl AL071937 24.3000 -93.0000 TS 40 0 5 38
1937260N23266 1937 46 NA GM NOT_NAMED 1937-09-17 09:00:00 TS 24.5000 -92.8075 main 458 456 P_____________ AL071937 24.5000 -92.8075 TS 40 0 5 42
1937260N23266 1937 46 NA GM NOT_NAMED 1937-09-17 12:00:00 TS 24.7000 -92.6000 40 hurdat_atl main 466 466 O_____________ hurdat_atl AL071937 24.7000 -92.6000 TS 40 0 6 43
1937260N23266 1937 46 NA GM NOT_NAMED 1937-09-17 15:00:00 TS 24.9000 -92.3925 main 475 464 P_____________ AL071937 24.9000 -92.3925 TS 40 0 5 42
1937260N23266 1937 46 NA GM NOT_NAMED 1937-09-17 18:00:00 TS 25.1000 -92.2000 40 hurdat_atl main 464 440 O_____________ hurdat_atl AL071937 25.1000 -92.2000 TS 40 0 5 39
1937260N23266 1937 46 NA GM NOT_NAMED 1937-09-17 21:00:00 TS 25.2850 -92.0424 main 438 413 P_____________ AL071937 25.2850 -92.0424 TS 42 0 5 34
1937260N23266 1937 46 NA GM NOT_NAMED 1937-09-18 00:00:00 TS 25.5000 -91.9000 45 hurdat_atl main 413 379 O_____________ hurdat_atl AL071937 25.5000 -91.9000 TS 45 0 6 27
1937260N23266 1937 46 NA GM NOT_NAMED 1937-09-18 03:00:00 TS 25.7925 -91.7500 main 379 342 P_____________ AL071937 25.7925 -91.7500 TS 45 0 7 24
1937260N23266 1937 46 NA GM NOT_NAMED 1937-09-18 06:00:00 TS 26.1000 -91.6000 45 hurdat_atl main 342 307 O_____________ hurdat_atl AL071937 26.1000 -91.6000 TS 45 0 6 25
1937260N23266 1937 46 NA GM NOT_NAMED 1937-09-18 09:00:00 TS 26.3650 -91.4574 main 307 281 P_____________ AL071937 26.3650 -91.4574 TS 47 0 6 28
1937260N23266 1937 46 NA GM NOT_NAMED 1937-09-18 12:00:00 TS 26.6000 -91.3000 50 hurdat_atl main 281 257 O_____________ hurdat_atl AL071937 26.6000 -91.3000 TS 50 0 5 35
1937260N23266 1937 46 NA GM NOT_NAMED 1937-09-18 15:00:00 TS 26.8075 -91.1149 main 257 234 P_____________ AL071937 26.8075 -91.1149 TS 50 0 5 42
1937260N23266 1937 46 NA GM NOT_NAMED 1937-09-18 18:00:00 TS 27.0000 -90.9000 50 hurdat_atl main 234 212 O_____________ hurdat_atl AL071937 27.0000 -90.9000 TS 50 0 6 48
1937260N23266 1937 46 NA GM NOT_NAMED 1937-09-18 21:00:00 TS 27.1926 -90.6425 main 212 190 P_____________ AL071937 27.1926 -90.6425 TS 50 0 6 48
1937260N23266 1937 46 NA GM NOT_NAMED 1937-09-19 00:00:00 TS 27.4000 -90.4000 50 hurdat_atl main 190 167 O_____________ hurdat_atl AL071937 27.4000 -90.4000 TS 50 0 6 39
1937260N23266 1937 46 NA GM NOT_NAMED 1937-09-19 03:00:00 TS 27.6349 -90.2348 main 167 133 P_____________ AL071937 27.6349 -90.2348 TS 47 0 6 28
1937260N23266 1937 46 NA GM NOT_NAMED 1937-09-19 06:00:00 TS 27.9000 -90.1000 45 hurdat_atl main 133 100 O_____________ hurdat_atl AL071937 27.9000 -90.1000 TS 45 0 6 23
1937260N23266 1937 46 NA GM NOT_NAMED 1937-09-19 09:00:00 TS 28.1924 -89.9648 main 100 73 P_____________ AL071937 28.1924 -89.9648 TS 45 0 7 24
1937260N23266 1937 46 NA GM NOT_NAMED 1937-09-19 12:00:00 TS 28.5000 -89.8000 45 hurdat_atl main 73 38 O_____________ hurdat_atl AL071937 28.5000 -89.8000 TS 45 0 7 27
1937260N23266 1937 46 NA GM NOT_NAMED 1937-09-19 15:00:00 TS 28.8297 -89.6025 main 38 0 P_____________ AL071937 28.8297 -89.6025 TS 42 0 7 36
1937260N23266 1937 46 NA GM NOT_NAMED 1937-09-19 18:00:00 TS 29.1000 -89.3000 40 1002 hurdat_atl main 0 0 O_____________ hurdat_atl AL071937 29.1000 -89.3000 L TS 40 1002 0 8 58
1937260N23266 1937 46 NA GM NOT_NAMED 1937-09-19 21:00:00 TS 29.2375 -88.8523 main 14 14 P_____________ AL071937 29.2375 -88.8523 TS 40 0 9 77
1937260N23266 1937 46 NA GM NOT_NAMED 1937-09-20 00:00:00 TS 29.3000 -88.3000 40 hurdat_atl main 71 71 O_____________ hurdat_atl AL071937 29.3000 -88.3000 TS 40 0 10 84
1937260N23266 1937 46 NA GM NOT_NAMED 1937-09-20 03:00:00 TS 29.3499 -87.7147 main 104 93 P_____________ AL071937 29.3499 -87.7147 TS 40 0 11 85
1937260N23266 1937 46 NA GM NOT_NAMED 1937-09-20 06:00:00 TS 29.4000 -87.1000 40 hurdat_atl main 100 97 O_____________ hurdat_atl AL071937 29.4000 -87.1000 TS 40 0 11 82
1937260N23266 1937 46 NA GM NOT_NAMED 1937-09-20 09:00:00 TS 29.4976 -86.4591 main 97 49 P_____________ AL071937 29.4976 -86.4591 TS 37 0 11 79
1937260N23266 1937 46 NA GM NOT_NAMED 1937-09-20 12:00:00 TS 29.6000 -85.9000 35 hurdat_atl main 49 9 O_____________ hurdat_atl AL071937 29.6000 -85.9000 TS 35 0 8 78
1937260N23266 1937 46 NA GM NOT_NAMED 1937-09-20 15:00:00 TS 29.6657 -85.5269 main 9 0 P_____________ AL071937 29.6657 -85.5269 TS 35 0 7 77
1937260N23266 1937 46 NA GM NOT_NAMED 1937-09-20 16:00:00 TS 29.7000 -85.4000 35 hurdat_atl main 0 0 O_____________ hurdat_atl AL071937 29.7000 -85.4000 L TS 35 0 8 70
1937260N23266 1937 46 NA NA NOT_NAMED 1937-09-20 18:00:00 TS 29.8000 -85.1000 35 hurdat_atl main 0 0 O_____________ hurdat_atl AL071937 29.8000 -85.1000 TS 35 0 8 74
1937260N23266 1937 46 NA GM NOT_NAMED 1937-09-20 21:00:00 TS 29.8731 -84.6946 main 0 0 P_____________ AL071937 29.8731 -84.6946 TS 32 -1 7 82
1937260N23266 1937 46 NA GM NOT_NAMED 1937-09-21 00:00:00 TS 29.9000 -84.3000 30 hurdat_atl main 0 0 O_____________ hurdat_atl AL071937 29.9000 -84.3000 TD 30 -1 7 84
1937260N23266 1937 46 NA GM NOT_NAMED 1937-09-21 03:00:00 TS 29.9500 -83.8500 main 0 0 P_____________ AL071937 29.9500 -83.8500 TD 27 -1 8 83
1937260N23266 1937 46 NA NA NOT_NAMED 1937-09-21 06:00:00 TS 30.0000 -83.4000 25 hurdat_atl main 0 0 O_____________ hurdat_atl AL071937 30.0000 -83.4000 TD 25 -1 7 82
1937260N23266 1937 46 NA NA NOT_NAMED 1937-09-21 09:00:00 TS 30.0573 -82.9925 main 0 0 P_____________ AL071937 30.0573 -82.9925 TD 22 -1 7 82
1937260N23266 1937 46 NA NA NOT_NAMED 1937-09-21 12:00:00 TS 30.1000 -82.6000 20 hurdat_atl main 0 0 O_____________ hurdat_atl AL071937 30.1000 -82.6000 TD 20 -1 7 86
1937260N23266 1937 46 NA NA NOT_NAMED 1937-09-21 15:00:00 TS 30.1103 -82.2024 main 0 0 P_____________ AL071937 30.1103 -82.2024 TD 20 -1 7 90
1937260N23266 1937 46 NA NA NOT_NAMED 1937-09-21 18:00:00 TS 30.1000 -81.8000 20 hurdat_atl main 0 O_____________ hurdat_atl AL071937 30.1000 -81.8000 TD 20 -1 7 92

IBTrACS Databaseについて

本データベースは、米国NOAAが公開する1842年以降の世界の熱帯低気圧のベストトラックデータアーカイブInternational Best Track Archive for Climate Stewardship (IBTrACS)を、ウェブで閲覧しやすい形式に変換したものです。

最終更新日:2021-12-03